createdAt,value
2019-04-05T00:02:47.856Z,100029.03
2019-04-05T00:07:42.948Z,100032.02
2019-04-05T00:13:06.186Z,100041.09
2019-04-05T00:17:59.834Z,100035.53
2019-04-05T00:22:54.042Z,100036.59
2019-04-05T00:27:50.011Z,100032.06
2019-04-05T00:32:44.767Z,100021.30
2019-04-05T00:37:38.521Z,100022.31
2019-04-05T00:42:32.131Z,100011.81
2019-04-05T00:47:25.733Z,100008.98
2019-04-05T00:52:19.421Z,100014.30
2019-04-05T00:57:13.343Z,100015.50
2019-04-05T01:02:07.195Z,100017.05
2019-04-05T01:07:05.453Z,100027.01
2019-04-05T01:11:59.058Z,100039.59
2019-04-05T01:16:52.743Z,100043.81
2019-04-05T01:21:48.105Z,100039.84
2019-04-05T01:26:44.362Z,100049.41
2019-04-05T01:31:37.964Z,100048.27
2019-04-05T01:36:31.644Z,100044.08
2019-04-05T01:41:25.530Z,100047.92
2019-04-05T01:46:19.131Z,100048.11
2019-04-05T01:51:12.892Z,100049.50
2019-04-05T01:56:06.477Z,100046.58
2019-04-05T02:01:00.274Z,100045.98
2019-04-05T02:05:53.843Z,100037.19
2019-04-05T02:10:47.983Z,100039.12
2019-04-05T02:15:41.760Z,100024.68
2019-04-05T02:20:35.457Z,100025.05
2019-04-05T02:25:29.189Z,100026.02
2019-04-05T02:30:23.218Z,100022.83
2019-04-05T02:35:17.117Z,100018.02
2019-04-05T02:40:12.951Z,100028.98
2019-04-05T02:45:07.741Z,100038.05
2019-04-05T02:50:01.789Z,100041.23
2019-04-05T02:54:56.546Z,100041.32
2019-04-05T02:59:50.857Z,100055.28
2019-04-05T03:04:44.904Z,100054.33
2019-04-05T03:09:38.753Z,100042.80
2019-04-05T03:14:32.433Z,100039.64
2019-04-05T03:19:30.367Z,100041.52
2019-04-05T03:24:28.559Z,100051.22
2019-04-05T03:29:22.226Z,100058.39
2019-04-05T03:34:16.635Z,100050.64
2019-04-05T03:39:12.222Z,100044.37
2019-04-05T03:44:06.636Z,100034.77
2019-04-05T03:49:00.445Z,100041.22
2019-04-05T03:53:54.372Z,100049.03
2019-04-05T03:58:48.323Z,100043.41
2019-04-05T04:03:42.090Z,100046.19
2019-04-05T04:08:36.010Z,100047.88
2019-04-05T04:13:29.558Z,100056.95
2019-04-05T04:18:24.155Z,100068.64
2019-04-05T04:23:20.758Z,100075.98
2019-04-05T04:28:14.636Z,100087.92
2019-04-05T04:33:08.330Z,100096.53
2019-04-05T04:38:02.214Z,100095.45
2019-04-05T04:42:56.316Z,100096.15
2019-04-05T04:47:50.183Z,100103.56
2019-04-05T04:52:44.066Z,100103.03
2019-04-05T04:57:37.983Z,100099.86
2019-04-05T05:02:31.511Z,100102.41
2019-04-05T05:07:25.258Z,100097.66
2019-04-05T05:12:18.938Z,100102.79
2019-04-05T05:17:12.851Z,100118.76
2019-04-05T05:22:06.185Z,100114.71
2019-04-05T05:26:59.830Z,100114.44
2019-04-05T05:31:53.762Z,100117.83
2019-04-05T05:36:47.544Z,100123.60
2019-04-05T05:41:41.255Z,100131.66
2019-04-05T05:46:34.929Z,100132.78
2019-04-05T05:51:28.718Z,100131.15
2019-04-05T05:56:22.282Z,100124.64
2019-04-05T06:01:17.727Z,100126.59
2019-04-05T06:06:11.200Z,100131.13
2019-04-05T06:11:04.786Z,100132.84
2019-04-05T06:15:58.679Z,100140.42
2019-04-05T06:20:52.159Z,100136.73
2019-04-05T06:25:46.045Z,100133.55
2019-04-05T06:30:39.725Z,100130.20
2019-04-05T06:35:33.170Z,100129.97
2019-04-05T06:40:39.694Z,100130.41
2019-04-05T06:45:22.298Z,100133.31
2019-04-05T06:50:15.799Z,100128.91
2019-04-05T06:55:09.181Z,100130.73
2019-04-05T07:00:02.718Z,100118.09
2019-04-05T07:04:56.550Z,100121.70
2019-04-05T07:09:50.186Z,100117.12
2019-04-05T07:14:43.765Z,100117.48
2019-04-05T07:19:37.261Z,100116.02
2019-04-05T07:24:30.779Z,100121.36
2019-04-05T07:29:24.567Z,100120.55
2019-04-05T07:34:18.118Z,100122.72
2019-04-05T07:39:11.496Z,100111.53
2019-04-05T07:44:05.198Z,100126.52
2019-04-05T07:48:58.852Z,100124.61
2019-04-05T07:53:52.197Z,100113.23
2019-04-05T07:58:45.802Z,100115.28
2019-04-05T08:03:39.395Z,100123.06
2019-04-05T08:09:06.416Z,100126.97
2019-04-05T08:14:02.104Z,100126.88
2019-04-05T08:18:58.189Z,100119.84
2019-04-05T08:23:51.202Z,100126.27
2019-04-05T08:28:44.823Z,100128.20
2019-04-05T08:33:38.419Z,100122.17
2019-04-05T08:38:32.060Z,100127.53
2019-04-05T08:43:25.865Z,100134.45
2019-04-05T08:48:19.231Z,100138.94
2019-04-05T08:53:12.942Z,100134.05
2019-04-05T08:58:06.416Z,100134.91
2019-04-05T09:03:00.099Z,100129.05
2019-04-05T09:07:53.670Z,100127.66
2019-04-05T09:12:47.371Z,100125.41
2019-04-05T09:17:40.941Z,100129.12
2019-04-05T09:22:34.529Z,100126.24
2019-04-05T09:27:27.967Z,100134.11
2019-04-05T09:32:21.598Z,100132.91
2019-04-05T09:37:15.268Z,100123.37
2019-04-05T09:42:08.657Z,100111.80
2019-04-05T09:47:02.328Z,100119.78
2019-04-05T09:51:55.901Z,100109.26
2019-04-05T09:56:49.510Z,100125.89
2019-04-05T10:01:43.187Z,100126.14
2019-04-05T10:06:36.668Z,100120.61
2019-04-05T10:11:30.327Z,100121.23
2019-04-05T10:16:23.812Z,100121.23
2019-04-05T10:21:17.412Z,100120.25
2019-04-05T10:26:11.073Z,100101.63
2019-04-05T10:31:04.580Z,100100.77
2019-04-05T10:35:58.172Z,100104.15
2019-04-05T10:40:51.851Z,100109.98
2019-04-05T10:45:46.017Z,100106.75
2019-04-05T10:50:39.736Z,100096.84
2019-04-05T10:55:33.291Z,100103.23
2019-04-05T11:00:27.616Z,100097.59
2019-04-05T11:05:21.354Z,100089.73
2019-04-05T11:10:17.324Z,100093.20
2019-04-05T11:15:14.970Z,100096.67
2019-04-05T11:20:20.738Z,100099.90
2019-04-05T11:25:06.304Z,100110.65
2019-04-05T11:29:59.934Z,100113.35
2019-04-05T11:34:53.441Z,100110.72
2019-04-05T11:39:48.589Z,100101.61
2019-04-05T11:44:44.016Z,100090.98
2019-04-05T11:49:39.271Z,100089.84
2019-04-05T11:54:32.883Z,100095.55
2019-04-05T11:59:26.391Z,100087.12
2019-04-05T12:04:19.922Z,100088.65
2019-04-05T12:09:13.219Z,100086.38
2019-04-05T12:14:06.774Z,100085.28
2019-04-05T12:19:04.483Z,100080.11
2019-04-05T12:23:56.116Z,100069.28
2019-04-05T12:28:49.704Z,100074.83
2019-04-05T12:33:43.399Z,100066.84
2019-04-05T12:38:36.863Z,100064.08
2019-04-05T12:43:30.531Z,100061.91
2019-04-05T12:48:24.133Z,100052.44
2019-04-05T12:53:17.624Z,100058.77
2019-04-05T12:58:11.397Z,100051.45
2019-04-05T13:03:05.278Z,100051.51
2019-04-05T13:07:58.961Z,100046.52
2019-04-05T13:12:56.708Z,100039.86
2019-04-05T13:17:47.878Z,100042.80
2019-04-05T13:22:41.356Z,100035.20
2019-04-05T13:27:34.841Z,100028.12
2019-04-05T13:32:28.501Z,100016.11
2019-04-05T13:37:23.479Z,100019.72
2019-04-05T13:42:17.103Z,100016.77
2019-04-05T13:47:10.577Z,100013.48
2019-04-05T13:52:06.542Z,100008.17
2019-04-05T13:57:01.146Z,100007.19
2019-04-05T14:02:05.618Z,99998.06
2019-04-05T14:06:53.249Z,99996.55
2019-04-05T14:11:45.470Z,99993.80
2019-04-05T14:16:42.579Z,100013.16
2019-04-05T14:21:40.260Z,100004.70
2019-04-05T14:26:29.970Z,100005.11
2019-04-05T14:31:23.864Z,99989.67
2019-04-05T14:36:17.684Z,99977.61
2019-04-05T14:41:11.269Z,99983.18
2019-04-05T14:46:05.041Z,99973.15
2019-04-05T14:50:58.635Z,99965.05
2019-04-05T14:55:52.293Z,99965.06
2019-04-05T15:00:47.170Z,99953.50
2019-04-05T15:05:41.122Z,99966.74
2019-04-05T15:10:34.997Z,99965.25
2019-04-05T15:15:28.961Z,99967.49
2019-04-05T15:20:22.752Z,99965.11
2019-04-05T15:25:17.505Z,99971.00
2019-04-05T15:30:11.773Z,99965.53
2019-04-05T15:35:05.986Z,99977.74
2019-04-05T15:40:00.434Z,99972.88
2019-04-05T15:44:54.569Z,99971.69
2019-04-05T15:49:51.818Z,99966.44
2019-04-05T15:54:45.352Z,99959.86
2019-04-05T15:59:39.104Z,99961.49
2019-04-05T16:04:32.659Z,99978.94
2019-04-05T16:09:26.378Z,99966.20
2019-04-05T16:14:19.871Z,99971.47
2019-04-05T16:19:13.658Z,99969.58
2019-04-05T16:24:07.244Z,99968.75
2019-04-05T16:29:01.225Z,99980.82
2019-04-05T16:33:54.847Z,99984.91
2019-04-05T16:38:48.406Z,99979.61
2019-04-05T16:43:42.003Z,99983.02
2019-04-05T16:48:35.530Z,99993.07
2019-04-05T16:53:29.127Z,99986.69
2019-04-05T16:58:22.717Z,99987.06
2019-04-05T17:03:16.271Z,99991.80
2019-04-05T17:08:09.657Z,99984.58
2019-04-05T17:13:03.151Z,99987.31
2019-04-05T17:17:56.543Z,99986.52
2019-04-05T17:22:58.136Z,99988.02
2019-04-05T17:27:45.565Z,99989.75
2019-04-05T17:32:39.088Z,99996.22
2019-04-05T17:37:32.543Z,99987.67
2019-04-05T17:42:26.099Z,99997.15
2019-04-05T17:47:19.542Z,99997.06
2019-04-05T17:52:13.002Z,99994.08
2019-04-05T17:57:06.695Z,99989.70
2019-04-05T18:02:00.614Z,99994.47
2019-04-05T18:06:54.305Z,99994.67
2019-04-05T18:11:47.640Z,100000.31
2019-04-05T18:16:41.216Z,100005.38
2019-04-05T18:21:34.643Z,100005.25
2019-04-05T18:26:28.328Z,100002.18
2019-04-05T18:31:21.913Z,100008.23
2019-04-05T18:36:15.734Z,100010.11
2019-04-05T18:41:09.381Z,100018.55
2019-04-05T18:46:03.014Z,100022.22
2019-04-05T18:50:56.435Z,100030.48
2019-04-05T18:55:49.972Z,100031.09
2019-04-05T19:00:43.594Z,100028.74
2019-04-05T19:05:37.189Z,100033.84
2019-04-05T19:10:36.914Z,100025.78
2019-04-05T19:15:26.093Z,100026.17
2019-04-05T19:20:19.776Z,100028.55
2019-04-05T19:25:13.255Z,100027.41
2019-04-05T19:49:50.035Z,100030.09
2019-04-05T19:54:43.522Z,100030.49
2019-04-05T19:59:37.199Z,100026.84
2019-04-05T20:04:30.895Z,100023.16
2019-04-05T20:09:24.353Z,100031.88
2019-04-05T20:14:17.993Z,100027.09
2019-04-05T20:19:11.569Z,100026.73
2019-04-05T20:24:13.686Z,100022.21
2019-04-05T20:29:00.524Z,100028.69
2019-04-05T20:33:54.129Z,100036.69
2019-04-05T20:38:47.611Z,100039.45
2019-04-05T20:43:41.321Z,100038.03
2019-04-05T20:48:34.997Z,100033.47
2019-04-05T20:53:28.671Z,100035.17
2019-04-05T20:58:22.256Z,100034.77
2019-04-05T21:03:15.750Z,100031.64
2019-04-05T21:08:09.342Z,100026.43
2019-04-05T21:13:04.312Z,100023.33
2019-04-05T21:17:58.031Z,100016.16
2019-04-05T21:22:51.515Z,100018.05
2019-04-05T21:27:45.251Z,100017.91
2019-04-05T21:32:38.998Z,100011.58
2019-04-05T21:37:32.810Z,100009.68
2019-04-05T21:42:26.574Z,100010.63
2019-04-05T21:47:20.475Z,100009.55
2019-04-05T21:52:14.300Z,99997.56
2019-04-05T21:57:07.867Z,99995.02
2019-04-05T22:02:01.749Z,99998.18
2019-04-05T22:06:55.310Z,100002.27
2019-04-05T22:11:49.130Z,100007.64
2019-04-05T22:16:42.810Z,100005.48
2019-04-05T22:21:36.391Z,100003.84
2019-04-05T22:26:31.581Z,100003.77
2019-04-05T22:31:25.197Z,100001.05
2019-04-05T22:36:18.850Z,100008.59
2019-04-05T22:41:12.386Z,100002.98
2019-04-05T22:46:05.942Z,100005.52
2019-04-05T22:50:59.715Z,100008.97
2019-04-05T22:55:53.417Z,99999.92
2019-04-05T23:00:47.235Z,99996.13
2019-04-05T23:05:40.877Z,99997.05
2019-04-05T23:10:34.543Z,99990.20
2019-04-05T23:15:28.230Z,100000.77
2019-04-05T23:20:22.464Z,99994.36
2019-04-05T23:25:21.730Z,99993.55
2019-04-05T23:30:11.953Z,99999.09
2019-04-05T23:35:05.678Z,99994.20
2019-04-05T23:39:59.361Z,99993.75
2019-04-05T23:44:52.613Z,99987.33
2019-04-05T23:49:45.924Z,99991.64
2019-04-05T23:54:39.142Z,99991.41
2019-04-05T23:59:32.717Z,99983.48
